createdAt,value
2017-10-23T00:02:17.287Z,8.90
2017-10-23T00:04:44.849Z,8.80
2017-10-23T00:07:12.450Z,8.70
2017-10-23T00:09:40.012Z,8.80
2017-10-23T00:12:07.575Z,8.80
2017-10-23T00:14:35.932Z,8.80
2017-10-23T00:17:03.485Z,8.80
2017-10-23T00:19:31.078Z,8.80
2017-10-23T00:21:59.426Z,8.80
2017-10-23T00:24:27.028Z,8.80
2017-10-23T00:26:54.599Z,8.80
2017-10-23T00:29:22.275Z,8.80
2017-10-23T00:31:49.867Z,8.90
2017-10-23T00:34:18.187Z,8.70
2017-10-23T00:36:45.787Z,8.70
2017-10-23T00:39:13.358Z,8.80
2017-10-23T00:41:40.912Z,8.70
2017-10-23T00:44:08.499Z,8.60
2017-10-23T00:46:36.853Z,8.60
2017-10-23T00:49:04.560Z,8.60
2017-10-23T00:51:32.128Z,8.60
2017-10-23T00:54:00.199Z,8.60
2017-10-23T00:56:27.758Z,8.60
2017-10-23T00:58:55.349Z,8.70
2017-10-23T01:01:22.952Z,8.70
2017-10-23T01:03:50.511Z,8.60
2017-10-23T01:06:18.868Z,8.50
2017-10-23T01:08:46.432Z,8.50
2017-10-23T01:11:14.807Z,8.50
2017-10-23T01:13:42.381Z,8.40
2017-10-23T01:16:09.976Z,8.60
2017-10-23T01:18:37.538Z,8.50
2017-10-23T01:21:05.185Z,8.50
2017-10-23T01:23:32.778Z,8.60
2017-10-23T01:26:00.352Z,8.60
2017-10-23T01:28:27.960Z,8.60
2017-10-23T01:30:55.548Z,8.40
2017-10-23T01:33:23.172Z,8.50
2017-10-23T01:35:50.759Z,8.50
2017-10-23T01:38:18.308Z,8.60
2017-10-23T01:40:45.941Z,8.50
2017-10-23T01:43:13.517Z,8.60
2017-10-23T01:45:41.127Z,8.50
2017-10-23T01:48:08.692Z,8.50
2017-10-23T01:50:36.289Z,8.40
2017-10-23T01:53:03.892Z,8.30
2017-10-23T01:55:31.448Z,8.30
2017-10-23T01:57:59.036Z,8.30
2017-10-23T02:00:27.352Z,8.30
2017-10-23T02:02:54.943Z,8.30
2017-10-23T02:05:22.511Z,8.30
2017-10-23T02:07:50.111Z,8.30
2017-10-23T02:10:17.700Z,8.30
2017-10-23T02:12:45.266Z,8.30
2017-10-23T02:15:12.964Z,8.30
2017-10-23T02:17:41.324Z,8.30
2017-10-23T02:20:08.920Z,8.20
2017-10-23T02:22:36.483Z,8.30
2017-10-23T02:25:04.079Z,8.30
2017-10-23T02:27:31.815Z,8.30
2017-10-23T02:29:59.419Z,8.30
2017-10-23T02:32:26.989Z,8.30
2017-10-23T02:34:55.332Z,8.30
2017-10-23T02:37:22.930Z,8.30
2017-10-23T02:39:51.268Z,8.30
2017-10-23T02:42:18.968Z,8.30
2017-10-23T02:44:47.288Z,8.30
2017-10-23T02:47:14.887Z,8.30
2017-10-23T02:49:42.444Z,8.30
2017-10-23T02:52:10.047Z,8.20
2017-10-23T02:54:38.028Z,8.30
2017-10-23T02:57:05.595Z,8.30
2017-10-23T02:59:33.164Z,8.30
2017-10-23T03:02:00.762Z,8.20
2017-10-23T03:04:29.142Z,8.20
2017-10-23T03:06:57.467Z,8.10
2017-10-23T03:09:25.068Z,8.00
2017-10-23T03:11:52.652Z,8.10
2017-10-23T03:14:20.238Z,8.00
2017-10-23T03:16:47.799Z,8.10
2017-10-23T03:19:15.387Z,8.10
2017-10-23T03:21:42.956Z,8.10
2017-10-23T03:24:10.555Z,8.20
2017-10-23T03:26:38.221Z,8.10
2017-10-23T03:29:05.784Z,8.00
2017-10-23T03:31:33.357Z,7.90
2017-10-23T03:34:00.908Z,7.90
2017-10-23T03:36:28.523Z,7.70
2017-10-23T03:38:56.847Z,7.80
2017-10-23T03:41:24.428Z,7.80
2017-10-23T03:43:52.200Z,7.90
2017-10-23T03:46:19.826Z,8.00
2017-10-23T03:48:47.500Z,8.00
2017-10-23T03:51:15.055Z,7.90
2017-10-23T03:53:42.643Z,7.90
2017-10-23T03:56:10.344Z,7.90
2017-10-23T03:58:37.911Z,7.80
2017-10-23T04:01:05.523Z,7.70
2017-10-23T04:03:33.085Z,7.70
2017-10-23T04:06:00.667Z,7.70
2017-10-23T04:08:29.011Z,7.70
2017-10-23T04:10:56.583Z,7.70
2017-10-23T04:13:24.172Z,7.70
2017-10-23T04:15:51.732Z,7.70
2017-10-23T04:18:19.313Z,7.60
2017-10-23T04:20:46.867Z,7.60
2017-10-23T04:23:14.469Z,7.70
2017-10-23T04:25:42.039Z,7.80
2017-10-23T04:28:10.368Z,7.90
2017-10-23T04:30:37.955Z,7.90
2017-10-23T04:33:05.531Z,8.00
2017-10-23T04:35:33.120Z,8.00
2017-10-23T04:38:00.675Z,7.90
2017-10-23T04:40:28.277Z,7.90
2017-10-23T04:42:55.842Z,7.90
2017-10-23T04:45:23.408Z,8.00
2017-10-23T04:47:51.784Z,8.20
2017-10-23T04:50:19.360Z,8.20
2017-10-23T04:52:47.707Z,8.20
2017-10-23T04:55:15.360Z,8.20
2017-10-23T04:57:42.960Z,8.20
2017-10-23T05:00:11.306Z,8.30
2017-10-23T05:02:38.989Z,8.20
2017-10-23T05:05:07.368Z,8.20
2017-10-23T05:07:35.700Z,8.30
2017-10-23T05:10:03.310Z,8.20
2017-10-23T05:12:31.665Z,8.10
2017-10-23T05:14:59.255Z,8.10
2017-10-23T05:17:27.620Z,8.20
2017-10-23T05:19:55.211Z,8.10
2017-10-23T05:22:22.796Z,8.10
2017-10-23T05:24:50.392Z,8.10
2017-10-23T05:27:17.991Z,8.20
2017-10-23T05:29:45.560Z,8.20
2017-10-23T05:32:13.160Z,8.30
2017-10-23T05:34:40.731Z,8.20
2017-10-23T05:37:08.295Z,8.10
2017-10-23T05:39:36.655Z,8.20
2017-10-23T05:42:04.224Z,8.10
2017-10-23T05:44:32.586Z,8.20
2017-10-23T05:47:00.264Z,8.10
2017-10-23T05:49:28.603Z,8.20
2017-10-23T05:51:56.321Z,8.20
2017-10-23T05:54:23.883Z,8.10
2017-10-23T05:56:51.483Z,8.10
2017-10-23T05:59:19.279Z,8.20
2017-10-23T06:01:46.870Z,8.20
2017-10-23T06:04:14.455Z,8.20
2017-10-23T06:06:42.109Z,8.20
2017-10-23T06:09:09.696Z,8.10
2017-10-23T06:11:37.303Z,8.20
2017-10-23T06:14:04.860Z,8.20
2017-10-23T06:16:32.424Z,8.20
2017-10-23T06:19:00.023Z,8.20
2017-10-23T06:21:27.962Z,8.30
2017-10-23T06:23:55.644Z,8.30
2017-10-23T06:26:23.208Z,8.40
2017-10-23T06:28:50.828Z,8.30
2017-10-23T06:31:18.396Z,8.20
2017-10-23T06:33:45.948Z,8.20
2017-10-23T06:36:13.677Z,8.30
2017-10-23T06:38:42.003Z,8.30
2017-10-23T06:41:09.569Z,8.30
2017-10-23T06:43:37.173Z,8.30
2017-10-23T06:46:05.567Z,8.40
2017-10-23T06:48:33.906Z,8.40
2017-10-23T06:51:01.595Z,8.40
2017-10-23T06:53:29.952Z,8.50
2017-10-23T06:55:57.524Z,8.50
2017-10-23T06:58:25.879Z,8.30
2017-10-23T07:00:53.439Z,8.30
2017-10-23T07:03:21.928Z,8.30
2017-10-23T07:05:49.512Z,8.30
2017-10-23T07:08:17.854Z,8.40
2017-10-23T07:10:45.439Z,8.40
2017-10-23T07:13:13.781Z,8.60
2017-10-23T07:15:41.386Z,8.60
2017-10-23T07:18:08.956Z,8.50
2017-10-23T07:20:36.572Z,8.60
2017-10-23T07:23:04.146Z,8.70
2017-10-23T07:25:32.485Z,8.90
2017-10-23T07:28:00.076Z,8.90
2017-10-23T07:30:27.780Z,9.10
2017-10-23T07:32:55.424Z,9.20
2017-10-23T07:35:23.103Z,9.30
2017-10-23T07:37:50.696Z,9.30
2017-10-23T07:40:18.292Z,9.30
2017-10-23T07:42:46.707Z,9.40
2017-10-23T07:45:14.567Z,9.40
2017-10-23T07:47:42.136Z,9.40
2017-10-23T07:50:09.716Z,9.50
2017-10-23T07:52:37.295Z,9.50
2017-10-23T07:55:04.896Z,9.50
2017-10-23T07:57:32.558Z,9.70
2017-10-23T08:00:00.148Z,9.70
2017-10-23T08:02:27.707Z,9.60
2017-10-23T08:04:55.300Z,9.90
2017-10-23T08:07:23.626Z,9.90
2017-10-23T08:09:51.244Z,9.90
2017-10-23T08:12:18.820Z,10.10
2017-10-23T08:14:46.433Z,10.10
2017-10-23T08:17:14.039Z,10.30
2017-10-23T08:19:41.617Z,10.10
2017-10-23T08:22:09.192Z,10.00
2017-10-23T08:24:36.771Z,9.90
2017-10-23T08:27:04.335Z,10.00
2017-10-23T08:29:31.923Z,10.00
2017-10-23T08:31:59.534Z,9.90
2017-10-23T08:34:27.108Z,9.90
2017-10-23T08:36:55.517Z,10.30
2017-10-23T08:39:23.098Z,10.30
2017-10-23T08:41:50.735Z,10.40
2017-10-23T08:44:18.317Z,10.60
2017-10-23T08:46:45.912Z,10.30
2017-10-23T08:49:13.528Z,10.50
2017-10-23T08:51:41.172Z,10.40
2017-10-23T08:54:08.784Z,10.70
2017-10-23T08:56:36.359Z,10.90
2017-10-23T08:59:03.950Z,10.90
2017-10-23T09:01:31.567Z,10.90
2017-10-23T09:03:59.136Z,11.00
2017-10-23T09:06:26.747Z,11.00
2017-10-23T09:08:54.307Z,10.90
2017-10-23T09:11:21.880Z,11.10
2017-10-23T09:13:49.604Z,11.00
2017-10-23T09:16:17.943Z,11.10
2017-10-23T09:18:45.668Z,11.10
2017-10-23T09:21:13.236Z,11.10
2017-10-23T09:23:40.828Z,11.20
2017-10-23T09:26:08.423Z,11.60
2017-10-23T09:28:35.987Z,11.70
2017-10-23T09:31:03.582Z,11.80
2017-10-23T09:33:31.149Z,11.50
2017-10-23T09:35:58.761Z,11.30
2017-10-23T09:38:26.328Z,11.20
2017-10-23T09:40:54.061Z,11.60
2017-10-23T09:43:22.496Z,12.10
2017-10-23T09:45:50.206Z,12.10
2017-10-23T09:48:18.595Z,13.40
2017-10-23T09:50:47.007Z,12.80
2017-10-23T09:53:14.770Z,12.80
2017-10-23T09:55:42.445Z,13.10
2017-10-23T09:58:10.018Z,12.50
2017-10-23T10:00:37.602Z,12.40
2017-10-23T10:03:05.928Z,12.40
2017-10-23T10:05:33.527Z,12.30
2017-10-23T10:08:01.899Z,11.20
2017-10-23T10:10:29.484Z,11.10
2017-10-23T10:12:57.074Z,11.20
2017-10-23T10:15:24.648Z,10.80
2017-10-23T10:17:52.267Z,10.80
2017-10-23T10:20:19.849Z,10.90
2017-10-23T10:22:47.458Z,10.70
2017-10-23T10:25:15.807Z,11.20
2017-10-23T10:27:43.438Z,11.20
2017-10-23T10:30:11.015Z,11.30
2017-10-23T10:32:38.597Z,11.20
2017-10-23T10:35:06.217Z,11.30
2017-10-23T10:37:33.792Z,11.20
2017-10-23T10:40:01.383Z,11.30
2017-10-23T10:42:28.943Z,11.00
2017-10-23T10:44:56.508Z,11.20
2017-10-23T10:47:24.879Z,11.20
2017-10-23T10:49:52.435Z,11.20
2017-10-23T10:52:20.029Z,11.30
2017-10-23T10:54:47.664Z,11.20
2017-10-23T10:57:16.180Z,11.10
2017-10-23T10:59:43.867Z,11.10
2017-10-23T11:02:11.486Z,11.20
2017-10-23T11:04:39.059Z,11.40
2017-10-23T11:07:06.698Z,11.70
2017-10-23T11:09:35.097Z,11.50
2017-10-23T11:12:02.660Z,11.50
2017-10-23T11:14:30.255Z,11.60
2017-10-23T11:16:57.835Z,11.60
2017-10-23T11:19:26.256Z,11.50
2017-10-23T11:21:53.850Z,11.40
2017-10-23T11:24:21.414Z,11.60
2017-10-23T11:26:49.776Z,11.50
2017-10-23T11:29:17.381Z,11.50
2017-10-23T11:31:45.712Z,11.40
2017-10-23T11:34:13.339Z,11.40
2017-10-23T11:36:40.968Z,11.60
2017-10-23T11:39:09.354Z,11.60
2017-10-23T11:41:37.708Z,11.70
2017-10-23T11:44:05.264Z,11.70
2017-10-23T11:46:32.867Z,11.80
2017-10-23T11:49:00.468Z,11.50
2017-10-23T11:51:28.090Z,11.70
2017-10-23T11:53:55.676Z,11.70
2017-10-23T11:56:23.316Z,11.80
2017-10-23T11:58:50.876Z,11.90
2017-10-23T12:01:18.455Z,11.70
2017-10-23T12:03:46.093Z,11.60
2017-10-23T12:06:13.682Z,12.10
2017-10-23T12:08:41.260Z,12.40
2017-10-23T12:11:08.861Z,12.30
2017-10-23T12:13:36.437Z,12.60
2017-10-23T12:16:04.015Z,12.40
2017-10-23T12:18:31.621Z,12.00
2017-10-23T12:20:59.960Z,11.80
2017-10-23T12:23:27.544Z,11.80
2017-10-23T12:25:56.068Z,11.80
2017-10-23T12:28:23.674Z,11.80
2017-10-23T12:30:51.236Z,11.90
2017-10-23T12:33:19.608Z,12.20
2017-10-23T12:35:47.212Z,12.20
2017-10-23T12:38:14.772Z,12.30
2017-10-23T12:40:42.374Z,12.40
2017-10-23T12:43:09.944Z,12.50
2017-10-23T12:45:37.540Z,12.70
2017-10-23T12:48:05.112Z,13.20
2017-10-23T12:50:32.708Z,13.30
2017-10-23T12:53:00.274Z,13.60
2017-10-23T12:55:27.827Z,14.10
2017-10-23T12:57:55.412Z,13.20
2017-10-23T13:00:23.759Z,12.70
2017-10-23T13:02:51.377Z,12.70
2017-10-23T13:05:19.099Z,12.60
2017-10-23T13:07:46.709Z,12.60
2017-10-23T13:10:14.276Z,12.80
2017-10-23T13:12:41.881Z,12.60
2017-10-23T13:15:10.248Z,12.80
2017-10-23T13:17:38.578Z,13.00
2017-10-23T13:20:06.160Z,13.00
2017-10-23T13:22:33.716Z,12.80
2017-10-23T13:25:01.307Z,13.00
2017-10-23T13:27:29.790Z,12.50
2017-10-23T13:29:58.219Z,12.70
2017-10-23T13:32:25.920Z,12.70
2017-10-23T13:34:53.479Z,12.70
2017-10-23T13:37:22.009Z,12.40
2017-10-23T13:39:49.564Z,12.40
2017-10-23T13:42:17.252Z,12.50
2017-10-23T13:44:44.911Z,12.20
2017-10-23T13:47:12.503Z,12.30
2017-10-23T13:49:40.884Z,12.30
2017-10-23T13:52:09.215Z,12.30
2017-10-23T13:54:36.812Z,12.40
2017-10-23T13:57:05.295Z,12.30
2017-10-23T13:59:32.910Z,12.30
2017-10-23T14:02:00.479Z,12.20
2017-10-23T14:04:28.047Z,12.20
2017-10-23T14:06:55.656Z,12.00
2017-10-23T14:09:23.331Z,11.80
2017-10-23T14:11:50.962Z,12.00
2017-10-23T14:14:19.355Z,12.20
2017-10-23T14:16:46.953Z,12.20
2017-10-23T14:19:14.528Z,12.50
2017-10-23T14:21:42.090Z,12.70
2017-10-23T14:24:09.694Z,12.60
2017-10-23T14:26:37.303Z,13.60
2017-10-23T14:29:04.895Z,13.30
2017-10-23T14:31:33.218Z,12.50
2017-10-23T14:34:00.908Z,12.40
2017-10-23T14:36:29.246Z,12.60
2017-10-23T14:38:56.818Z,12.60
2017-10-23T14:41:24.427Z,12.50
2017-10-23T14:43:52.921Z,12.20
2017-10-23T14:46:20.528Z,12.20
2017-10-23T14:48:48.243Z,12.00
2017-10-23T14:51:15.824Z,12.00
2017-10-23T14:53:43.407Z,12.10
2017-10-23T14:56:10.999Z,12.10
2017-10-23T14:58:39.358Z,12.10
2017-10-23T15:01:08.491Z,12.00
2017-10-23T15:03:36.071Z,12.00
2017-10-23T15:06:03.694Z,12.00
2017-10-23T15:08:32.163Z,11.90
2017-10-23T15:11:00.654Z,12.00
2017-10-23T15:13:28.987Z,12.00
2017-10-23T15:15:56.601Z,12.00
2017-10-23T15:18:24.204Z,12.00
2017-10-23T15:20:51.829Z,12.00
2017-10-23T15:23:19.419Z,12.00
2017-10-23T15:25:46.995Z,11.90
2017-10-23T15:28:14.606Z,11.90
2017-10-23T15:30:42.187Z,11.90
2017-10-23T15:33:09.778Z,11.80
2017-10-23T15:35:37.367Z,11.70
2017-10-23T15:38:05.703Z,11.50
2017-10-23T15:40:33.316Z,11.50
2017-10-23T15:43:00.883Z,11.50
2017-10-23T15:45:28.448Z,11.60
2017-10-23T15:50:46.176Z,11.60
2017-10-23T15:53:24.324Z,11.60
2017-10-23T15:56:02.775Z,11.60
2017-10-23T15:58:30.399Z,11.60
2017-10-23T16:00:58.022Z,11.70
2017-10-23T16:03:25.598Z,11.60
2017-10-23T16:05:53.400Z,11.50
2017-10-23T16:08:21.007Z,11.40
2017-10-23T16:10:48.604Z,11.30
2017-10-23T16:13:16.231Z,11.40
2017-10-23T16:15:43.807Z,11.30
2017-10-23T16:18:11.546Z,11.40
2017-10-23T16:20:39.143Z,11.30
2017-10-23T16:23:06.825Z,11.10
2017-10-23T16:25:34.631Z,11.10
2017-10-23T16:28:02.205Z,11.00
2017-10-23T16:30:29.808Z,11.00
2017-10-23T16:32:58.179Z,11.00
2017-10-23T16:35:25.827Z,11.00
2017-10-23T16:37:53.395Z,11.00
2017-10-23T16:40:21.732Z,11.00
2017-10-23T16:42:49.339Z,10.90
2017-10-23T16:45:17.760Z,10.90
2017-10-23T16:47:45.539Z,10.90
2017-10-23T16:50:13.128Z,11.00
2017-10-23T16:52:40.739Z,10.90
2017-10-23T16:55:08.339Z,10.90
2017-10-23T16:57:35.910Z,10.90
2017-10-23T17:00:03.517Z,10.90
2017-10-23T17:02:31.250Z,10.90
2017-10-23T17:04:59.731Z,10.70
2017-10-23T17:07:28.100Z,10.80
2017-10-23T17:09:56.592Z,10.70
2017-10-23T17:12:24.984Z,10.70
2017-10-23T17:14:52.563Z,10.70
2017-10-23T17:17:20.172Z,10.70
2017-10-23T17:19:48.647Z,10.70
2017-10-23T17:22:17.006Z,10.70
2017-10-23T17:24:44.581Z,10.70
2017-10-23T17:27:12.200Z,10.70
2017-10-23T17:29:39.771Z,10.70
2017-10-23T17:32:07.390Z,10.70
2017-10-23T17:34:34.993Z,10.60
2017-10-23T17:37:02.569Z,10.60
2017-10-23T17:39:30.416Z,10.60
2017-10-23T17:41:57.987Z,10.50
2017-10-23T17:44:25.611Z,10.50
2017-10-23T17:46:53.188Z,10.50
2017-10-23T17:49:20.830Z,10.40
2017-10-23T17:51:48.444Z,10.40
2017-10-23T17:54:16.845Z,10.50
2017-10-23T17:56:44.422Z,10.50
2017-10-23T17:59:12.003Z,10.50
2017-10-23T18:01:39.609Z,10.50
2017-10-23T18:04:07.944Z,10.50
2017-10-23T18:06:35.556Z,10.50
2017-10-23T18:09:03.140Z,10.50
2017-10-23T18:11:30.788Z,10.40
2017-10-23T18:13:58.359Z,10.40
2017-10-23T18:16:25.974Z,10.30
2017-10-23T18:18:53.599Z,10.30
2017-10-23T18:21:21.240Z,10.30
2017-10-23T18:23:48.869Z,10.30
2017-10-23T18:26:16.443Z,10.30
2017-10-23T18:28:44.225Z,10.30
2017-10-23T18:31:11.828Z,10.40
2017-10-23T18:33:39.489Z,10.30
2017-10-23T18:36:07.083Z,10.30
2017-10-23T18:38:34.671Z,10.30
2017-10-23T18:41:02.332Z,10.30
2017-10-23T18:43:31.556Z,10.20
2017-10-23T18:45:59.169Z,10.20
2017-10-23T18:48:26.747Z,10.20
2017-10-23T18:50:54.355Z,10.20
2017-10-23T18:53:22.737Z,10.20
2017-10-23T18:55:50.317Z,10.20
2017-10-23T18:58:17.919Z,10.20
2017-10-23T19:00:45.613Z,10.20
2017-10-23T19:03:14.173Z,10.10
2017-10-23T19:05:41.777Z,10.10
2017-10-23T19:08:09.375Z,10.10
2017-10-23T19:10:37.122Z,10.10
2017-10-23T19:13:04.694Z,10.10
2017-10-23T19:15:32.289Z,10.20
2017-10-23T19:18:00.681Z,10.10
2017-10-23T19:20:28.277Z,10.10
2017-10-23T19:22:55.900Z,10.10
2017-10-23T19:25:23.473Z,10.10
2017-10-23T19:27:51.088Z,10.10
2017-10-23T19:30:18.688Z,10.10
2017-10-23T19:32:46.481Z,10.00
2017-10-23T19:35:14.100Z,10.10
2017-10-23T19:37:41.721Z,10.00
2017-10-23T19:40:09.379Z,10.00
2017-10-23T19:42:38.484Z,10.10
2017-10-23T19:45:06.205Z,10.10
2017-10-23T19:47:33.819Z,10.10
2017-10-23T19:50:02.228Z,10.10
2017-10-23T19:52:29.864Z,10.10
2017-10-23T19:54:58.220Z,10.20
2017-10-23T19:57:25.844Z,10.10
2017-10-23T19:59:53.420Z,10.10
2017-10-23T20:02:21.043Z,10.20
2017-10-23T20:04:48.635Z,10.10
2017-10-23T20:07:16.243Z,10.10
2017-10-23T20:09:43.934Z,10.10
2017-10-23T20:12:11.557Z,10.20
2017-10-23T20:14:39.955Z,10.10
2017-10-23T20:17:07.543Z,10.10
2017-10-23T20:19:35.165Z,10.20
2017-10-23T20:22:02.735Z,10.30
2017-10-23T20:24:30.339Z,10.30
2017-10-23T20:26:57.980Z,10.30
2017-10-23T20:29:25.573Z,10.30
2017-10-23T20:31:53.966Z,10.30
2017-10-23T20:34:22.335Z,10.30
2017-10-23T20:36:50.789Z,10.30
2017-10-23T20:39:18.443Z,10.30
2017-10-23T20:41:46.043Z,10.30
2017-10-23T20:44:14.532Z,10.30
2017-10-23T20:46:42.194Z,10.20
2017-10-23T20:49:09.835Z,10.30
2017-10-23T20:51:38.180Z,10.30
2017-10-23T20:54:05.764Z,10.20
2017-10-23T20:56:34.148Z,10.30
2017-10-23T20:59:02.528Z,10.30
2017-10-23T21:01:30.940Z,10.30
2017-10-23T21:03:58.525Z,10.20
2017-10-23T21:06:26.139Z,10.30
2017-10-23T21:08:53.725Z,10.30
2017-10-23T21:11:21.307Z,10.30
2017-10-23T21:13:49.260Z,10.30
2017-10-23T21:16:16.847Z,10.30
2017-10-23T21:18:44.435Z,10.30
2017-10-23T21:21:12.848Z,10.30
2017-10-23T21:23:40.458Z,10.30
2017-10-23T21:26:09.022Z,10.30
2017-10-23T21:28:36.599Z,10.20
2017-10-23T21:31:05.004Z,10.20
2017-10-23T21:33:32.684Z,10.20
2017-10-23T21:36:00.311Z,10.20
2017-10-23T21:38:28.668Z,10.30
2017-10-23T21:40:56.227Z,10.30
2017-10-23T21:43:24.579Z,10.20
2017-10-23T21:45:52.179Z,10.20
2017-10-23T21:48:20.547Z,10.40
2017-10-23T21:50:48.900Z,10.30
2017-10-23T21:53:16.555Z,10.30
2017-10-23T21:55:44.147Z,10.40
2017-10-23T21:58:12.665Z,10.30
2017-10-23T22:00:40.421Z,10.30
2017-10-23T22:03:07.994Z,10.30
2017-10-23T22:05:35.611Z,10.30
2017-10-23T22:08:03.949Z,10.30
2017-10-23T22:10:31.559Z,10.30
2017-10-23T22:12:59.283Z,10.20
2017-10-23T22:15:28.394Z,10.10
2017-10-23T22:17:56.776Z,10.10
2017-10-23T22:20:25.163Z,10.00
2017-10-23T22:22:53.571Z,10.20
2017-10-23T22:25:21.195Z,10.20
2017-10-23T22:27:49.639Z,10.10
2017-10-23T22:30:17.201Z,10.10
2017-10-23T22:32:46.678Z,10.20
2017-10-23T22:35:14.562Z,10.20
2017-10-23T22:37:42.128Z,10.30
2017-10-23T22:40:09.725Z,10.30
2017-10-23T22:42:37.286Z,10.20
2017-10-23T22:45:04.931Z,10.20
2017-10-23T22:47:33.263Z,10.30
2017-10-23T22:50:00.837Z,10.30
2017-10-23T22:52:28.436Z,10.20
2017-10-23T22:54:56.844Z,10.30
2017-10-23T22:57:24.511Z,10.20
2017-10-23T22:59:52.118Z,10.20
2017-10-23T23:02:20.447Z,10.30
2017-10-23T23:04:48.023Z,10.20
2017-10-23T23:07:15.704Z,10.20
2017-10-23T23:09:43.273Z,10.20
2017-10-23T23:12:11.610Z,10.20
2017-10-23T23:14:39.243Z,10.20
2017-10-23T23:17:06.804Z,10.20
2017-10-23T23:19:34.476Z,10.20
2017-10-23T23:22:02.067Z,10.20
2017-10-23T23:24:29.667Z,10.20
2017-10-23T23:26:57.396Z,10.20
2017-10-23T23:29:24.998Z,10.20
2017-10-23T23:31:52.615Z,10.30
2017-10-23T23:34:20.307Z,10.20
2017-10-23T23:36:48.640Z,10.20
2017-10-23T23:39:16.244Z,10.20
2017-10-23T23:41:43.816Z,10.20
2017-10-23T23:44:11.427Z,10.20
2017-10-23T23:46:38.996Z,10.30
2017-10-23T23:49:06.569Z,10.30
2017-10-23T23:51:34.956Z,10.30
2017-10-23T23:54:03.459Z,10.30
2017-10-23T23:56:31.054Z,10.30
2017-10-23T23:58:58.675Z,10.30
